createdAt,value
2023-05-10T00:01:11.482Z,15.61
2023-05-10T00:03:42.436Z,15.58
2023-05-10T00:06:13.248Z,15.54
2023-05-10T00:08:43.776Z,15.51
2023-05-10T00:11:14.310Z,15.49
2023-05-10T00:13:44.887Z,15.47
2023-05-10T00:16:16.017Z,15.45
2023-05-10T00:18:46.597Z,15.43
2023-05-10T00:21:17.081Z,15.41
2023-05-10T00:23:47.541Z,15.39
2023-05-10T00:26:18.307Z,15.37
2023-05-10T00:28:49.457Z,15.35
2023-05-10T00:31:19.981Z,15.34
2023-05-10T00:33:50.422Z,15.32
2023-05-10T00:36:22.068Z,15.31
2023-05-10T00:38:52.596Z,15.30
2023-05-10T00:41:23.332Z,15.27
2023-05-10T00:43:54.089Z,15.24
2023-05-10T00:46:25.669Z,15.20
2023-05-10T00:48:56.680Z,15.16
2023-05-10T00:51:28.027Z,15.13
2023-05-10T00:53:58.869Z,15.11
2023-05-10T00:56:30.949Z,15.10
2023-05-10T00:59:01.868Z,15.06
2023-05-10T01:01:32.765Z,15.04
2023-05-10T01:04:04.241Z,15.02
2023-05-10T01:06:34.692Z,15.00
2023-05-10T01:09:05.308Z,14.97
2023-05-10T01:11:36.867Z,14.94
2023-05-10T01:14:08.295Z,14.91
2023-05-10T01:16:41.012Z,14.88
2023-05-10T01:19:19.135Z,14.84
2023-05-10T01:21:58.442Z,14.81
2023-05-10T01:24:52.237Z,14.79
2023-05-10T01:27:39.526Z,14.77
2023-05-10T01:30:32.610Z,14.72
2023-05-10T01:33:12.225Z,14.68
2023-05-10T01:35:49.680Z,14.65
2023-05-10T01:38:24.780Z,14.64
2023-05-10T01:41:05.058Z,14.63
2023-05-10T01:43:42.718Z,14.62
2023-05-10T01:46:18.434Z,14.59
2023-05-10T01:48:56.382Z,14.55
2023-05-10T01:51:31.864Z,14.52
2023-05-10T01:54:05.930Z,14.51
2023-05-10T01:56:40.112Z,14.50
2023-05-10T01:59:17.640Z,14.49
2023-05-10T02:01:49.177Z,14.46
2023-05-10T02:04:24.030Z,14.44
2023-05-10T02:06:55.883Z,14.43
2023-05-10T02:09:30.083Z,14.40
2023-05-10T02:12:02.002Z,14.39
2023-05-10T02:14:31.352Z,14.38
2023-05-10T02:17:04.210Z,14.36
2023-05-10T02:19:36.536Z,14.35
2023-05-10T02:22:09.264Z,14.34
2023-05-10T02:24:40.958Z,14.33
2023-05-10T02:27:12.853Z,14.31
2023-05-10T02:29:43.969Z,14.27
2023-05-10T02:32:16.603Z,14.25
2023-05-10T02:34:52.957Z,14.24
2023-05-10T02:37:24.862Z,14.23
2023-05-10T02:39:58.686Z,14.21
2023-05-10T02:42:31.494Z,14.18
2023-05-10T02:45:05.918Z,14.18
2023-05-10T02:47:36.855Z,14.18
2023-05-10T02:50:09.342Z,14.17
2023-05-10T02:52:46.358Z,14.15
2023-05-10T02:55:19.939Z,14.14
2023-05-10T02:57:58.183Z,14.11
2023-05-10T03:00:27.817Z,14.10
2023-05-10T03:02:58.341Z,14.08
2023-05-10T03:05:29.583Z,14.07
2023-05-10T03:08:01.696Z,14.06
2023-05-10T03:10:34.802Z,14.05
2023-05-10T03:13:18.431Z,14.03
2023-05-10T03:16:00.175Z,14.01
2023-05-10T03:18:37.972Z,13.99
2023-05-10T03:21:13.499Z,13.97
2023-05-10T03:23:50.073Z,13.95
2023-05-10T03:26:26.570Z,13.93
2023-05-10T03:29:02.497Z,13.92
2023-05-10T03:31:33.124Z,13.91
2023-05-10T03:34:04.183Z,13.90
2023-05-10T03:36:35.127Z,13.87
2023-05-10T03:39:05.859Z,13.85
2023-05-10T03:41:36.385Z,13.84
2023-05-10T03:44:07.498Z,13.84
2023-05-10T03:46:38.006Z,13.83
2023-05-10T03:49:08.585Z,13.82
2023-05-10T03:51:40.875Z,13.82
2023-05-10T03:54:11.349Z,13.81
2023-05-10T03:56:41.819Z,13.80
2023-05-10T03:59:12.733Z,13.79
2023-05-10T04:01:43.217Z,13.78
2023-05-10T04:04:13.808Z,13.77
2023-05-10T04:06:44.388Z,13.76
2023-05-10T04:09:15.087Z,13.75
2023-05-10T04:11:45.731Z,13.74
2023-05-10T04:14:16.175Z,13.73
2023-05-10T04:16:46.651Z,13.72
2023-05-10T04:19:17.212Z,13.72
2023-05-10T04:21:47.732Z,13.72
2023-05-10T04:24:18.221Z,13.71
2023-05-10T04:26:48.649Z,13.72
2023-05-10T04:29:19.231Z,13.72
2023-05-10T04:31:49.968Z,13.73
2023-05-10T04:34:22.909Z,13.74
2023-05-10T04:36:53.331Z,13.74
2023-05-10T04:39:23.899Z,13.76
2023-05-10T04:41:57.008Z,13.78
2023-05-10T04:44:27.464Z,13.80
2023-05-10T04:46:57.906Z,13.81
2023-05-10T04:49:28.420Z,13.82
2023-05-10T04:51:59.012Z,13.82
2023-05-10T04:54:29.464Z,13.83
2023-05-10T04:56:59.892Z,13.83
2023-05-10T04:59:30.598Z,13.85
2023-05-10T05:02:01.201Z,13.86
2023-05-10T05:04:31.965Z,13.88
2023-05-10T05:07:02.489Z,13.91
2023-05-10T05:09:33.215Z,13.93
2023-05-10T05:12:03.906Z,13.95
2023-05-10T05:14:34.421Z,13.97
2023-05-10T05:17:04.980Z,13.99
2023-05-10T05:19:36.683Z,14.00
2023-05-10T05:22:08.658Z,14.01
2023-05-10T05:24:39.399Z,14.04
2023-05-10T05:27:10.221Z,14.07
2023-05-10T05:29:40.857Z,14.12
2023-05-10T05:32:11.896Z,14.17
2023-05-10T05:34:43.188Z,14.22
2023-05-10T05:37:17.555Z,14.28
2023-05-10T05:39:48.298Z,14.32
2023-05-10T05:42:19.786Z,14.35
2023-05-10T05:44:50.458Z,14.37
2023-05-10T05:47:20.897Z,14.39
2023-05-10T05:49:51.355Z,14.40
2023-05-10T05:52:22.409Z,14.42
2023-05-10T05:54:53.102Z,14.47
2023-05-10T05:57:24.045Z,14.52
2023-05-10T05:59:54.511Z,14.55
2023-05-10T06:02:25.319Z,14.58
2023-05-10T06:04:56.147Z,14.63
2023-05-10T06:07:26.763Z,14.67
2023-05-10T06:09:57.156Z,14.69
2023-05-10T06:12:27.570Z,14.71
2023-05-10T06:14:58.010Z,14.73
2023-05-10T06:17:28.844Z,14.77
2023-05-10T06:19:59.297Z,14.80
2023-05-10T06:22:29.759Z,14.84
2023-05-10T06:25:00.203Z,14.87
2023-05-10T06:27:30.711Z,14.92
2023-05-10T06:30:11.735Z,14.96
2023-05-10T06:32:44.950Z,15.00
2023-05-10T06:35:15.917Z,15.04
2023-05-10T06:37:47.777Z,15.08
2023-05-10T06:40:19.294Z,15.13
2023-05-10T06:42:50.398Z,15.16
2023-05-10T06:45:20.578Z,15.21
2023-05-10T06:47:51.362Z,15.24
2023-05-10T06:50:21.907Z,15.29
2023-05-10T06:52:53.154Z,15.32
2023-05-10T06:55:24.660Z,15.36
2023-05-10T06:57:55.191Z,15.41
2023-05-10T07:00:26.422Z,15.44
2023-05-10T07:02:57.228Z,15.49
2023-05-10T07:05:28.854Z,15.54
2023-05-10T07:07:59.677Z,15.58
2023-05-10T07:10:30.805Z,15.62
2023-05-10T07:13:02.479Z,15.65
2023-05-10T07:15:33.077Z,15.70
2023-05-10T07:18:05.548Z,15.73
2023-05-10T07:20:36.111Z,15.78
2023-05-10T07:23:06.551Z,15.82
2023-05-10T07:25:37.090Z,15.86
2023-05-10T07:28:07.758Z,15.90
2023-05-10T07:30:38.338Z,15.94
2023-05-10T07:33:09.643Z,15.96
2023-05-10T07:35:40.410Z,15.99
2023-05-10T07:38:12.049Z,16.02
2023-05-10T07:40:42.732Z,16.06
2023-05-10T07:43:13.167Z,16.09
2023-05-10T07:45:43.668Z,16.13
2023-05-10T07:48:14.272Z,16.17
2023-05-10T07:50:44.725Z,16.20
2023-05-10T07:53:15.448Z,16.24
2023-05-10T07:55:46.182Z,16.27
2023-05-10T07:58:16.637Z,16.30
2023-05-10T08:00:47.139Z,16.33
2023-05-10T08:03:17.722Z,16.37
2023-05-10T08:05:48.356Z,16.39
2023-05-10T08:08:19.162Z,16.42
2023-05-10T08:10:49.740Z,16.44
2023-05-10T08:13:20.160Z,16.47
2023-05-10T08:15:52.780Z,16.51
2023-05-10T08:18:23.337Z,16.54
2023-05-10T08:20:53.887Z,16.56
2023-05-10T08:23:24.443Z,16.58
2023-05-10T08:25:54.918Z,16.59
2023-05-10T08:28:25.424Z,16.61
2023-05-10T08:30:56.307Z,16.63
2023-05-10T08:33:27.122Z,16.64
2023-05-10T08:35:57.600Z,16.65
2023-05-10T08:38:28.158Z,16.68
2023-05-10T08:41:00.040Z,16.70
2023-05-10T08:43:31.877Z,16.73
2023-05-10T08:46:05.277Z,16.76
2023-05-10T08:48:38.572Z,16.79
2023-05-10T08:51:10.467Z,16.82
2023-05-10T08:53:39.672Z,16.86
2023-05-10T08:56:11.244Z,16.87
2023-05-10T08:58:41.922Z,16.90
2023-05-10T09:01:13.238Z,16.94
2023-05-10T09:03:43.985Z,16.97
2023-05-10T09:06:16.446Z,17.00
2023-05-10T09:08:46.920Z,17.04
2023-05-10T09:11:18.212Z,17.07
2023-05-10T09:13:49.642Z,17.10
2023-05-10T09:16:21.909Z,17.11
2023-05-10T09:18:53.162Z,17.14
2023-05-10T09:21:24.243Z,17.17
2023-05-10T09:23:55.410Z,17.19
2023-05-10T09:26:27.778Z,17.23
2023-05-10T09:28:59.628Z,17.27
2023-05-10T09:31:47.517Z,17.29
2023-05-10T09:34:22.209Z,17.33
2023-05-10T09:37:01.925Z,17.37
2023-05-10T09:39:37.007Z,17.40
2023-05-10T09:42:09.630Z,17.44
2023-05-10T09:44:41.920Z,17.49
2023-05-10T09:47:12.575Z,17.53
2023-05-10T09:49:43.617Z,17.58
2023-05-10T09:52:14.038Z,17.62
2023-05-10T09:54:54.715Z,17.67
2023-05-10T09:57:26.572Z,17.71
2023-05-10T09:59:58.743Z,17.75
2023-05-10T10:02:33.692Z,17.80
2023-05-10T10:05:05.229Z,17.85
2023-05-10T10:07:36.890Z,17.90
2023-05-10T10:10:12.637Z,17.95
2023-05-10T10:12:43.883Z,18.01
2023-05-10T10:15:16.753Z,18.06
2023-05-10T10:17:47.764Z,18.12
2023-05-10T10:20:18.801Z,18.18
2023-05-10T10:22:50.136Z,18.23
2023-05-10T10:25:22.989Z,18.30
2023-05-10T10:28:09.591Z,18.35
2023-05-10T10:30:44.681Z,18.40
2023-05-10T10:33:42.507Z,18.46
2023-05-10T10:36:14.495Z,18.53
2023-05-10T10:39:02.280Z,18.58
2023-05-10T10:41:34.926Z,18.63
2023-05-10T10:44:27.532Z,18.70
2023-05-10T10:47:07.030Z,18.77
2023-05-10T10:49:45.291Z,18.83
2023-05-10T10:52:27.994Z,18.86
2023-05-10T10:55:02.762Z,18.89
2023-05-10T10:57:35.929Z,18.94
2023-05-10T11:00:37.410Z,18.98
2023-05-10T11:03:11.735Z,19.02
2023-05-10T11:05:44.846Z,19.07
2023-05-10T11:08:22.926Z,19.12
2023-05-10T11:11:07.867Z,19.19
2023-05-10T11:13:42.354Z,19.25
2023-05-10T11:16:18.291Z,19.30
2023-05-10T11:19:13.086Z,19.36
2023-05-10T11:21:50.840Z,19.44
2023-05-10T11:24:23.075Z,19.50
2023-05-10T11:26:55.798Z,19.54
2023-05-10T11:29:27.568Z,19.59
2023-05-10T11:31:59.133Z,19.62
2023-05-10T11:34:32.165Z,19.66
2023-05-10T11:37:03.654Z,19.72
2023-05-10T11:39:35.570Z,19.78
2023-05-10T11:42:06.330Z,19.84
2023-05-10T11:44:37.066Z,19.91
2023-05-10T11:47:08.528Z,19.92
2023-05-10T11:49:38.989Z,19.91
2023-05-10T11:52:12.154Z,19.90
2023-05-10T11:54:52.846Z,19.91
2023-05-10T11:57:28.174Z,19.95
2023-05-10T11:59:59.786Z,19.99
2023-05-10T12:02:31.258Z,20.02
2023-05-10T12:05:02.146Z,20.03
2023-05-10T12:07:32.550Z,20.08
2023-05-10T12:10:15.906Z,20.13
2023-05-10T12:12:49.155Z,20.12
2023-05-10T12:15:23.777Z,20.11
2023-05-10T12:17:54.610Z,20.10
2023-05-10T12:20:29.637Z,20.12
2023-05-10T12:23:02.964Z,20.17
2023-05-10T12:25:36.395Z,20.17
2023-05-10T12:30:59.643Z,20.18
2023-05-10T12:33:37.107Z,20.17
2023-05-10T12:36:08.591Z,20.17
2023-05-10T12:38:40.178Z,20.20
2023-05-10T12:41:12.478Z,20.23
2023-05-10T12:43:43.341Z,20.28
2023-05-10T12:46:15.412Z,20.34
2023-05-10T12:48:47.460Z,20.41
2023-05-10T12:51:20.556Z,20.44
2023-05-10T12:53:51.078Z,20.45
2023-05-10T12:56:21.608Z,20.48
2023-05-10T12:58:52.204Z,20.47
2023-05-10T13:01:22.703Z,20.46
2023-05-10T13:03:53.180Z,20.45
2023-05-10T13:06:23.608Z,20.44
2023-05-10T13:08:54.025Z,20.42
2023-05-10T13:11:24.545Z,20.41
2023-05-10T13:13:55.191Z,20.40
2023-05-10T13:16:25.683Z,20.40
2023-05-10T13:18:56.206Z,20.40
2023-05-10T13:21:26.844Z,20.39
2023-05-10T13:23:57.734Z,20.37
2023-05-10T13:26:29.285Z,20.37
2023-05-10T13:28:59.733Z,20.37
2023-05-10T13:31:30.381Z,20.38
2023-05-10T13:34:00.914Z,20.39
2023-05-10T13:36:31.531Z,20.40
2023-05-10T13:39:04.516Z,20.44
2023-05-10T13:41:35.338Z,20.49
2023-05-10T13:44:05.817Z,20.56
2023-05-10T13:46:36.507Z,20.61
2023-05-10T13:49:07.065Z,20.67
2023-05-10T13:51:38.420Z,20.68
2023-05-10T13:54:09.698Z,20.69
2023-05-10T13:56:41.902Z,20.69
2023-05-10T13:59:12.359Z,20.70
2023-05-10T14:01:43.802Z,20.72
2023-05-10T14:04:14.920Z,20.76
2023-05-10T14:06:45.367Z,20.81
2023-05-10T14:09:15.895Z,20.86
2023-05-10T14:11:46.970Z,20.88
2023-05-10T14:14:17.997Z,20.92
2023-05-10T14:16:48.721Z,20.93
2023-05-10T14:19:19.508Z,20.92
2023-05-10T14:21:49.975Z,20.91
2023-05-10T14:24:20.484Z,20.90
2023-05-10T14:26:54.776Z,20.90
2023-05-10T14:29:25.955Z,20.91
2023-05-10T14:31:56.832Z,20.99
2023-05-10T14:34:27.464Z,21.12
2023-05-10T14:36:58.074Z,21.22
2023-05-10T14:39:30.596Z,21.35
2023-05-10T14:42:01.138Z,21.37
2023-05-10T14:44:31.576Z,21.38
2023-05-10T14:47:02.069Z,21.41
2023-05-10T14:49:32.590Z,21.43
2023-05-10T14:52:03.310Z,21.45
2023-05-10T14:54:34.496Z,21.47
2023-05-10T14:57:05.051Z,21.47
2023-05-10T14:59:35.539Z,21.47
2023-05-10T15:02:06.559Z,21.62
2023-05-10T15:04:37.310Z,21.86
2023-05-10T15:07:08.116Z,21.99
2023-05-10T15:09:38.522Z,21.93
2023-05-10T15:12:09.068Z,21.87
2023-05-10T15:14:39.508Z,21.86
2023-05-10T15:17:10.233Z,21.88
2023-05-10T15:19:40.633Z,22.03
2023-05-10T15:22:11.364Z,22.04
2023-05-10T15:24:41.890Z,22.02
2023-05-10T15:27:12.625Z,21.98
2023-05-10T15:29:43.112Z,21.94
2023-05-10T15:32:13.559Z,21.91
2023-05-10T15:34:44.035Z,22.07
2023-05-10T15:37:14.577Z,22.12
2023-05-10T15:39:45.888Z,22.10
2023-05-10T15:42:16.733Z,22.22
2023-05-10T15:44:51.136Z,22.25
2023-05-10T15:47:21.694Z,22.23
2023-05-10T15:49:52.219Z,22.24
2023-05-10T15:52:23.848Z,22.23
2023-05-10T15:54:52.960Z,22.27
2023-05-10T15:57:23.711Z,22.23
2023-05-10T15:59:54.505Z,22.22
2023-05-10T16:02:25.111Z,22.22
2023-05-10T16:04:55.673Z,22.20
2023-05-10T16:07:26.168Z,22.15
2023-05-10T16:09:56.682Z,22.09
2023-05-10T16:12:27.270Z,22.05
2023-05-10T16:14:58.202Z,21.99
2023-05-10T16:17:28.876Z,21.94
2023-05-10T16:19:59.691Z,21.90
2023-05-10T16:22:30.987Z,21.85
2023-05-10T16:25:01.794Z,21.79
2023-05-10T16:27:33.714Z,21.73
2023-05-10T16:30:04.352Z,21.67
2023-05-10T16:32:35.183Z,21.61
2023-05-10T16:35:06.365Z,21.59
2023-05-10T16:37:36.917Z,21.57
2023-05-10T16:40:10.465Z,21.54
2023-05-10T16:42:41.002Z,21.50
2023-05-10T16:45:14.137Z,21.47
2023-05-10T16:47:44.688Z,21.44
2023-05-10T16:50:15.981Z,21.39
2023-05-10T16:52:46.463Z,21.36
2023-05-10T16:55:17.088Z,21.33
2023-05-10T16:57:47.985Z,21.31
2023-05-10T17:00:20.972Z,21.27
2023-05-10T17:02:51.496Z,21.23
2023-05-10T17:05:22.186Z,21.19
2023-05-10T17:07:53.182Z,21.15
2023-05-10T17:10:23.696Z,21.11
2023-05-10T17:12:54.736Z,21.07
2023-05-10T17:15:25.212Z,21.05
2023-05-10T17:17:55.715Z,21.02
2023-05-10T17:20:26.608Z,21.00
2023-05-10T17:22:57.059Z,20.97
2023-05-10T17:25:27.752Z,20.98
2023-05-10T17:27:58.264Z,20.98
2023-05-10T17:30:32.579Z,20.95
2023-05-10T17:33:04.227Z,20.92
2023-05-10T17:35:34.961Z,20.88
2023-05-10T17:38:05.433Z,20.86
2023-05-10T17:40:35.884Z,20.84
2023-05-10T17:43:06.385Z,20.80
2023-05-10T17:45:37.441Z,20.78
2023-05-10T17:48:09.451Z,20.74
2023-05-10T17:50:42.528Z,20.70
2023-05-10T17:53:13.081Z,20.68
2023-05-10T17:55:44.047Z,20.65
2023-05-10T17:58:15.050Z,20.62
2023-05-10T18:00:46.464Z,20.59
2023-05-10T18:03:16.942Z,20.57
2023-05-10T18:05:47.990Z,20.55
2023-05-10T18:08:22.730Z,20.52
2023-05-10T18:10:53.439Z,20.50
2023-05-10T18:13:24.255Z,20.46
2023-05-10T18:15:55.009Z,20.44
2023-05-10T18:18:25.570Z,20.41
2023-05-10T18:20:58.360Z,20.37
2023-05-10T18:23:29.266Z,20.36
2023-05-10T18:25:59.821Z,20.34
2023-05-10T18:28:30.261Z,20.33
2023-05-10T18:31:01.233Z,20.31
2023-05-10T18:33:32.201Z,20.29
2023-05-10T18:36:02.920Z,20.27
2023-05-10T18:38:33.506Z,20.25
2023-05-10T18:41:04.068Z,20.23
2023-05-10T18:43:34.898Z,20.22
2023-05-10T18:46:05.703Z,20.19
2023-05-10T18:48:36.178Z,20.18
2023-05-10T18:51:07.060Z,20.15
2023-05-10T18:53:38.084Z,20.13
2023-05-10T18:56:09.044Z,20.10
2023-05-10T18:58:39.471Z,20.08
2023-05-10T19:01:10.082Z,20.06
2023-05-10T19:03:40.690Z,20.03
2023-05-10T19:06:11.547Z,20.01
2023-05-10T19:08:42.172Z,19.98
2023-05-10T19:11:12.688Z,19.94
2023-05-10T19:13:45.289Z,19.92
2023-05-10T19:16:16.968Z,19.89
2023-05-10T19:18:46.839Z,19.88
2023-05-10T19:21:18.398Z,19.85
2023-05-10T19:23:48.930Z,19.84
2023-05-10T19:26:19.400Z,19.82
2023-05-10T19:28:51.616Z,19.79
2023-05-10T19:31:22.423Z,19.77
2023-05-10T19:33:53.546Z,19.75
2023-05-10T19:36:23.991Z,19.72
2023-05-10T19:38:55.081Z,19.70
2023-05-10T19:41:25.828Z,19.67
2023-05-10T19:43:56.448Z,19.64
2023-05-10T19:46:27.138Z,19.60
2023-05-10T19:48:57.826Z,19.56
2023-05-10T19:51:28.456Z,19.53
2023-05-10T19:53:58.968Z,19.50
2023-05-10T19:56:29.815Z,19.46
2023-05-10T19:59:02.961Z,19.42
2023-05-10T20:01:33.465Z,19.39
2023-05-10T20:04:04.116Z,19.36
2023-05-10T20:06:34.623Z,19.32
2023-05-10T20:09:05.538Z,19.29
2023-05-10T20:11:36.106Z,19.26
2023-05-10T20:14:06.581Z,19.23
2023-05-10T20:16:37.081Z,19.20
2023-05-10T20:19:07.593Z,19.17
2023-05-10T20:21:38.156Z,19.15
2023-05-10T20:24:10.269Z,19.12
2023-05-10T20:26:41.628Z,19.09
2023-05-10T20:29:13.365Z,19.06
2023-05-10T20:31:42.425Z,19.04
2023-05-10T20:34:13.304Z,19.00
2023-05-10T20:36:43.763Z,18.99
2023-05-10T20:39:14.981Z,18.98
2023-05-10T20:41:45.442Z,18.98
2023-05-10T20:44:16.065Z,18.98
2023-05-10T20:46:46.849Z,18.98
2023-05-10T20:49:17.709Z,18.96
2023-05-10T20:51:48.229Z,18.95
2023-05-10T20:54:18.697Z,18.93
2023-05-10T20:56:49.140Z,18.91
2023-05-10T20:59:19.964Z,18.89
2023-05-10T21:01:50.450Z,18.87
2023-05-10T21:04:21.377Z,18.86
2023-05-10T21:06:52.126Z,18.86
2023-05-10T21:09:22.657Z,18.86
2023-05-10T21:11:53.711Z,18.87
2023-05-10T21:14:24.296Z,18.87
2023-05-10T21:16:54.821Z,18.88
2023-05-10T21:19:25.563Z,18.87
2023-05-10T21:21:57.191Z,18.87
2023-05-10T21:24:27.890Z,18.86
2023-05-10T21:26:58.348Z,18.85
2023-05-10T21:29:28.823Z,18.84
2023-05-10T21:31:59.352Z,18.82
2023-05-10T21:34:30.189Z,18.80
2023-05-10T21:37:00.666Z,18.79
2023-05-10T21:39:31.098Z,18.78
2023-05-10T21:42:01.691Z,18.77
2023-05-10T21:44:32.629Z,18.76
2023-05-10T21:47:03.895Z,18.75
2023-05-10T21:49:35.096Z,18.74
2023-05-10T21:52:05.764Z,18.73
2023-05-10T21:54:37.522Z,18.72
2023-05-10T21:57:06.503Z,18.71
2023-05-10T21:59:37.048Z,18.69
2023-05-10T22:02:07.513Z,18.68
2023-05-10T22:04:38.094Z,18.67
2023-05-10T22:07:08.579Z,18.65
2023-05-10T22:09:39.044Z,18.64
2023-05-10T22:12:10.203Z,18.62
2023-05-10T22:14:40.680Z,18.60
2023-05-10T22:17:11.232Z,18.59
2023-05-10T22:19:41.768Z,18.57
2023-05-10T22:22:12.427Z,18.55
2023-05-10T22:24:42.952Z,18.53
2023-05-10T22:27:13.680Z,18.51
2023-05-10T22:29:44.222Z,18.50
2023-05-10T22:32:14.652Z,18.48
2023-05-10T22:34:45.178Z,18.47
2023-05-10T22:37:17.905Z,18.46
2023-05-10T22:39:49.118Z,18.44
2023-05-10T22:42:19.584Z,18.43
2023-05-10T22:44:50.165Z,18.41
2023-05-10T22:47:20.591Z,18.41
2023-05-10T22:49:51.146Z,18.39
2023-05-10T22:52:21.654Z,18.38
2023-05-10T22:54:52.097Z,18.35
2023-05-10T22:57:22.617Z,18.33
2023-05-10T22:59:53.231Z,18.31
2023-05-10T23:02:23.709Z,18.30
2023-05-10T23:04:54.291Z,18.28
2023-05-10T23:07:25.145Z,18.26
2023-05-10T23:09:55.563Z,18.25
2023-05-10T23:12:26.050Z,18.24
2023-05-10T23:14:56.549Z,18.22
2023-05-10T23:17:27.112Z,18.22
2023-05-10T23:19:57.872Z,18.20
2023-05-10T23:22:28.365Z,18.18
2023-05-10T23:24:59.173Z,18.16
2023-05-10T23:27:32.367Z,18.15
2023-05-10T23:30:03.357Z,18.13
2023-05-10T23:32:34.023Z,18.11
2023-05-10T23:35:05.066Z,18.09
2023-05-10T23:37:36.311Z,18.06
2023-05-10T23:40:08.644Z,18.05
2023-05-10T23:42:39.089Z,18.02
2023-05-10T23:45:11.257Z,18.00
2023-05-10T23:47:41.706Z,17.98
2023-05-10T23:50:13.361Z,17.95
2023-05-10T23:52:43.776Z,17.94
2023-05-10T23:55:14.905Z,17.92
2023-05-10T23:57:45.388Z,17.89
